createdAt,value
2018-07-31T00:00:16.971Z,23.05
2018-07-31T00:02:45.838Z,23.04
2018-07-31T00:05:14.667Z,22.97
2018-07-31T00:07:43.542Z,22.95
2018-07-31T00:10:12.384Z,22.97
2018-07-31T00:12:41.224Z,22.95
2018-07-31T00:15:11.654Z,22.93
2018-07-31T00:17:40.597Z,22.85
2018-07-31T00:20:09.465Z,22.80
2018-07-31T00:22:38.463Z,22.74
2018-07-31T00:25:07.302Z,22.69
2018-07-31T00:27:36.193Z,22.73
2018-07-31T00:30:07.438Z,22.76
2018-07-31T00:32:36.260Z,22.75
2018-07-31T00:35:05.108Z,22.74
2018-07-31T00:37:33.951Z,22.72
2018-07-31T00:40:02.830Z,22.66
2018-07-31T00:42:31.676Z,22.60
2018-07-31T00:45:00.537Z,22.53
2018-07-31T00:47:29.364Z,22.49
2018-07-31T00:49:58.235Z,22.47
2018-07-31T00:52:27.081Z,22.44
2018-07-31T00:54:55.988Z,22.49
2018-07-31T00:57:24.827Z,22.49
2018-07-31T00:59:53.694Z,22.51
2018-07-31T01:02:22.530Z,22.46
2018-07-31T01:04:51.364Z,22.38
2018-07-31T01:07:20.239Z,22.38
2018-07-31T01:09:49.078Z,22.38
2018-07-31T01:12:17.934Z,22.32
2018-07-31T01:14:46.786Z,22.33
2018-07-31T01:17:15.645Z,22.31
2018-07-31T01:19:44.486Z,22.33
2018-07-31T01:22:13.348Z,22.26
2018-07-31T01:24:42.230Z,22.27
2018-07-31T01:27:11.092Z,22.31
2018-07-31T01:29:40.025Z,22.24
2018-07-31T01:32:08.880Z,22.17
2018-07-31T01:34:37.717Z,22.14
2018-07-31T01:37:06.607Z,22.15
2018-07-31T01:39:35.457Z,22.13
2018-07-31T01:42:04.339Z,22.07
2018-07-31T01:44:33.185Z,22.02
2018-07-31T01:47:02.114Z,22.31
2018-07-31T01:49:30.993Z,22.12
2018-07-31T01:51:59.855Z,22.07
2018-07-31T01:54:28.711Z,22.04
2018-07-31T01:56:57.573Z,21.99
2018-07-31T01:59:26.409Z,21.94
2018-07-31T02:01:55.274Z,21.94
2018-07-31T02:04:24.134Z,21.86
2018-07-31T02:06:52.981Z,21.86
2018-07-31T02:09:21.829Z,21.82
2018-07-31T02:11:50.718Z,21.84
2018-07-31T02:14:19.588Z,21.85
2018-07-31T02:16:48.452Z,21.85
2018-07-31T02:19:17.282Z,21.84
2018-07-31T02:21:46.124Z,21.83
2018-07-31T02:24:14.963Z,21.75
2018-07-31T02:26:43.820Z,21.69
2018-07-31T02:29:12.649Z,22.01
2018-07-31T02:31:41.678Z,21.79
2018-07-31T02:34:10.540Z,22.05
2018-07-31T02:36:39.390Z,21.75
2018-07-31T02:39:08.785Z,21.70
2018-07-31T02:41:37.637Z,21.65
2018-07-31T02:44:06.508Z,21.71
2018-07-31T02:46:35.331Z,21.70
2018-07-31T02:49:04.195Z,21.93
2018-07-31T02:51:33.028Z,21.69
2018-07-31T02:54:01.872Z,21.64
2018-07-31T02:56:30.725Z,21.57
2018-07-31T02:58:59.614Z,21.51
2018-07-31T03:01:28.452Z,21.50
2018-07-31T03:03:57.299Z,21.53
2018-07-31T03:06:26.126Z,21.55
2018-07-31T03:08:54.990Z,21.57
2018-07-31T03:11:23.816Z,21.56
2018-07-31T03:13:52.693Z,21.56
2018-07-31T03:16:22.735Z,21.56
2018-07-31T03:18:51.593Z,21.58
2018-07-31T03:21:20.452Z,21.61
2018-07-31T03:23:49.307Z,21.60
2018-07-31T03:26:18.245Z,21.61
2018-07-31T03:28:47.080Z,21.62
2018-07-31T03:31:15.929Z,21.69
2018-07-31T03:33:44.751Z,21.78
2018-07-31T03:36:13.636Z,21.76
2018-07-31T03:38:45.599Z,21.75
2018-07-31T03:41:14.496Z,21.78
2018-07-31T03:43:43.355Z,21.77
2018-07-31T03:46:12.233Z,21.78
2018-07-31T03:48:41.096Z,21.78
2018-07-31T03:51:09.956Z,21.76
2018-07-31T03:53:38.820Z,21.77
2018-07-31T03:56:07.670Z,21.76
2018-07-31T03:58:36.527Z,21.78
2018-07-31T04:01:05.422Z,21.69
2018-07-31T04:03:34.273Z,21.60
2018-07-31T04:06:03.096Z,21.56
2018-07-31T04:08:31.924Z,21.56
2018-07-31T04:11:00.756Z,21.85
2018-07-31T04:13:29.602Z,21.59
2018-07-31T04:15:58.450Z,21.55
2018-07-31T04:18:27.318Z,21.53
2018-07-31T04:20:56.193Z,21.54
2018-07-31T04:23:28.614Z,21.58
2018-07-31T04:25:57.461Z,21.57
2018-07-31T04:28:26.317Z,21.49
2018-07-31T04:30:55.178Z,21.48
2018-07-31T04:33:24.031Z,21.49
2018-07-31T04:35:52.891Z,21.55
2018-07-31T04:38:21.755Z,21.61
2018-07-31T04:40:50.631Z,21.70
2018-07-31T04:43:19.467Z,21.77
2018-07-31T04:45:48.321Z,21.82
2018-07-31T04:48:17.202Z,21.85
2018-07-31T04:50:46.040Z,21.92
2018-07-31T04:53:14.887Z,22.32
2018-07-31T04:55:43.786Z,22.19
2018-07-31T04:58:12.613Z,22.26
2018-07-31T05:00:41.427Z,22.19
2018-07-31T05:03:10.277Z,22.23
2018-07-31T05:05:39.133Z,22.37
2018-07-31T05:08:08.007Z,22.44
2018-07-31T05:10:36.897Z,22.80
2018-07-31T05:13:05.752Z,22.64
2018-07-31T05:15:34.610Z,22.64
2018-07-31T05:18:03.471Z,22.66
2018-07-31T05:20:32.288Z,22.74
2018-07-31T05:23:01.138Z,22.79
2018-07-31T05:25:29.959Z,22.81
2018-07-31T05:28:01.939Z,22.87
2018-07-31T05:30:30.793Z,22.90
2018-07-31T05:32:59.680Z,23.01
2018-07-31T05:35:28.509Z,23.05
2018-07-31T05:37:57.382Z,23.09
2018-07-31T05:40:26.255Z,23.17
2018-07-31T05:42:55.079Z,23.50
2018-07-31T05:45:23.920Z,23.71
2018-07-31T05:47:52.769Z,23.56
2018-07-31T05:50:21.660Z,23.57
2018-07-31T05:52:50.596Z,23.66
2018-07-31T05:55:19.448Z,23.73
2018-07-31T05:57:48.282Z,23.81
2018-07-31T06:00:17.129Z,23.93
2018-07-31T06:02:45.987Z,24.11
2018-07-31T06:05:14.809Z,24.30
2018-07-31T06:07:43.655Z,24.34
2018-07-31T06:10:12.463Z,24.35
2018-07-31T06:12:44.649Z,24.45
2018-07-31T06:15:13.476Z,24.56
2018-07-31T06:17:42.360Z,24.52
2018-07-31T06:20:16.124Z,25.21
2018-07-31T06:22:46.379Z,26.35
2018-07-31T06:25:15.276Z,26.83
2018-07-31T06:27:44.672Z,26.96
2018-07-31T06:30:14.667Z,26.96
2018-07-31T06:32:43.575Z,26.75
2018-07-31T06:35:12.425Z,26.70
2018-07-31T06:37:41.264Z,27.02
2018-07-31T06:40:10.375Z,27.41
2018-07-31T06:42:39.238Z,27.72
2018-07-31T06:45:08.069Z,28.79
2018-07-31T06:47:36.913Z,30.41
2018-07-31T06:50:05.757Z,31.39
2018-07-31T06:52:34.589Z,31.79
2018-07-31T06:55:03.552Z,31.72
2018-07-31T06:57:32.376Z,32.47
2018-07-31T07:00:01.231Z,33.05
2018-07-31T07:02:30.080Z,33.70
2018-07-31T07:04:58.917Z,34.71
2018-07-31T07:07:27.756Z,34.41
2018-07-31T07:09:56.591Z,34.63
2018-07-31T07:12:25.580Z,34.78
2018-07-31T07:14:54.476Z,34.83
2018-07-31T07:17:29.654Z,34.86
2018-07-31T07:19:58.500Z,34.02
2018-07-31T07:22:27.385Z,34.82
2018-07-31T07:24:56.205Z,35.13
2018-07-31T07:27:31.232Z,35.07
2018-07-31T07:30:00.805Z,35.34
2018-07-31T07:32:32.466Z,36.26
2018-07-31T07:35:00.085Z,37.03
2018-07-31T07:37:29.751Z,35.84
2018-07-31T07:40:04.588Z,35.70
2018-07-31T07:42:49.345Z,35.91
2018-07-31T07:45:25.262Z,35.19
2018-07-31T07:47:59.403Z,34.21
2018-07-31T07:50:33.116Z,33.62
2018-07-31T07:53:09.750Z,33.78
2018-07-31T07:55:42.646Z,34.28
2018-07-31T07:58:15.349Z,34.96
2018-07-31T08:00:45.252Z,36.33
2018-07-31T08:03:16.445Z,37.73
2018-07-31T08:05:51.667Z,38.92
2018-07-31T08:08:26.763Z,39.78
2018-07-31T08:10:53.564Z,39.83
2018-07-31T08:13:23.285Z,40.12
2018-07-31T08:15:52.433Z,39.19
2018-07-31T08:18:25.759Z,37.97
2018-07-31T08:20:55.629Z,36.45
2018-07-31T08:23:24.825Z,35.78
2018-07-31T08:25:56.988Z,34.92
2018-07-31T08:28:26.665Z,34.55
2018-07-31T08:30:56.605Z,34.56
2018-07-31T08:33:26.017Z,34.56
2018-07-31T08:35:58.065Z,34.64
2018-07-31T08:38:29.278Z,34.82
2018-07-31T08:40:59.123Z,35.63
2018-07-31T08:43:29.323Z,35.53
2018-07-31T08:45:59.106Z,35.37
2018-07-31T08:48:31.763Z,35.56
2018-07-31T08:51:01.302Z,36.94
2018-07-31T08:53:31.103Z,37.21
2018-07-31T08:56:00.411Z,36.79
2018-07-31T08:58:29.833Z,37.50
2018-07-31T09:00:59.341Z,37.38
2018-07-31T09:03:31.369Z,38.45
2018-07-31T09:06:04.462Z,39.20
2018-07-31T09:08:34.487Z,39.00
2018-07-31T09:11:11.254Z,39.46
2018-07-31T09:13:47.004Z,38.94
2018-07-31T09:16:16.860Z,37.94
2018-07-31T09:18:56.952Z,37.85
2018-07-31T09:21:33.788Z,38.86
2018-07-31T09:23:56.906Z,37.93
2018-07-31T09:26:27.149Z,38.26
2018-07-31T09:28:57.553Z,38.02
2018-07-31T09:31:31.068Z,37.82
2018-07-31T09:34:07.330Z,36.88
2018-07-31T09:36:43.770Z,38.32
2018-07-31T09:39:18.835Z,39.51
2018-07-31T09:41:50.717Z,39.76
2018-07-31T09:44:22.867Z,38.81
2018-07-31T09:46:53.213Z,38.55
2018-07-31T09:49:22.729Z,37.75
2018-07-31T09:52:01.852Z,38.68
2018-07-31T09:54:38.688Z,38.94
2018-07-31T09:57:10.051Z,37.96
2018-07-31T09:59:46.682Z,37.67
2018-07-31T10:02:16.118Z,36.12
2018-07-31T10:04:46.075Z,36.49
2018-07-31T10:07:16.810Z,36.23
2018-07-31T10:09:47.388Z,36.55
2018-07-31T10:12:16.968Z,36.76
2018-07-31T10:14:47.319Z,38.74
2018-07-31T10:17:18.033Z,39.24
2018-07-31T10:19:52.378Z,36.60
2018-07-31T10:22:28.894Z,36.67
2018-07-31T10:25:05.334Z,37.61
2018-07-31T10:27:43.558Z,37.76
2018-07-31T10:30:16.283Z,37.92
2018-07-31T10:32:46.770Z,36.17
2018-07-31T10:35:19.783Z,35.78
2018-07-31T10:38:00.827Z,34.81
2018-07-31T10:40:40.276Z,34.30
2018-07-31T10:43:17.138Z,33.34
2018-07-31T10:45:46.902Z,33.01
2018-07-31T10:48:17.614Z,33.87
2018-07-31T10:50:47.812Z,34.66
2018-07-31T10:53:27.481Z,35.10
2018-07-31T10:55:59.089Z,35.06
2018-07-31T10:58:28.596Z,35.12
2018-07-31T11:00:59.344Z,35.04
2018-07-31T11:03:34.031Z,35.10
2018-07-31T11:06:10.490Z,34.39
2018-07-31T11:08:40.129Z,34.05
2018-07-31T11:11:14.213Z,33.40
2018-07-31T11:13:43.814Z,32.83
2018-07-31T11:16:13.065Z,33.41
2018-07-31T11:18:43.112Z,32.54
2018-07-31T11:21:16.866Z,33.03
2018-07-31T11:23:48.133Z,32.85
2018-07-31T11:26:18.106Z,32.56
2018-07-31T11:28:48.646Z,33.17
2018-07-31T11:31:22.494Z,34.22
2018-07-31T11:33:52.301Z,34.76
2018-07-31T11:36:27.094Z,34.90
2018-07-31T11:39:01.443Z,35.81
2018-07-31T11:41:35.483Z,35.01
2018-07-31T11:44:05.583Z,35.37
2018-07-31T11:46:55.548Z,36.16
2018-07-31T11:49:25.428Z,36.57
2018-07-31T11:51:54.794Z,38.48
2018-07-31T11:54:29.730Z,37.77
2018-07-31T11:57:02.150Z,37.60
2018-07-31T11:59:37.662Z,37.01
2018-07-31T12:02:10.174Z,36.08
2018-07-31T12:04:45.359Z,35.63
2018-07-31T12:07:18.395Z,35.50
2018-07-31T12:09:51.729Z,35.37
2018-07-31T12:12:24.153Z,35.14
2018-07-31T12:14:54.136Z,34.86
2018-07-31T12:17:28.722Z,34.91
2018-07-31T12:19:57.307Z,34.77
2018-07-31T12:22:27.958Z,34.65
2018-07-31T12:24:58.023Z,34.23
2018-07-31T12:27:30.948Z,34.29
2018-07-31T12:30:00.824Z,33.75
2018-07-31T12:32:36.137Z,33.37
2018-07-31T12:35:06.226Z,33.55
2018-07-31T12:37:39.728Z,33.60
2018-07-31T12:40:13.128Z,33.53
2018-07-31T12:42:45.651Z,33.38
2018-07-31T12:45:16.524Z,33.19
2018-07-31T12:47:55.741Z,33.37
2018-07-31T12:50:37.134Z,32.93
2018-07-31T12:53:07.130Z,32.99
2018-07-31T12:55:42.672Z,33.26
2018-07-31T12:58:12.636Z,33.44
2018-07-31T13:00:42.186Z,33.21
2018-07-31T13:03:17.917Z,33.23
2018-07-31T13:05:51.216Z,33.35
2018-07-31T13:08:20.649Z,33.06
2018-07-31T13:10:50.439Z,33.14
2018-07-31T13:13:25.692Z,32.87
2018-07-31T13:15:55.970Z,33.06
2018-07-31T13:18:32.531Z,33.06
2018-07-31T13:21:01.865Z,33.10
2018-07-31T13:23:33.294Z,33.09
2018-07-31T13:26:08.026Z,32.86
2018-07-31T13:28:37.051Z,32.77
2018-07-31T13:31:06.589Z,32.86
2018-07-31T13:33:35.718Z,32.82
2018-07-31T13:36:09.578Z,32.96
2018-07-31T13:38:44.204Z,32.89
2018-07-31T13:41:16.869Z,32.83
2018-07-31T13:43:48.109Z,32.84
2018-07-31T13:46:17.793Z,32.98
2018-07-31T13:48:49.594Z,32.99
2018-07-31T13:51:23.626Z,32.85
2018-07-31T13:53:52.998Z,32.69
2018-07-31T13:56:22.109Z,32.71
2018-07-31T13:58:54.150Z,32.51
2018-07-31T14:01:23.559Z,32.25
2018-07-31T14:03:53.210Z,32.21
2018-07-31T14:06:25.779Z,32.44
2018-07-31T14:08:55.398Z,32.14
2018-07-31T14:11:24.578Z,32.34
2018-07-31T14:13:53.837Z,32.10
2018-07-31T14:16:25.958Z,32.23
2018-07-31T14:18:57.971Z,32.28
2018-07-31T14:21:29.499Z,31.95
2018-07-31T14:24:04.721Z,32.02
2018-07-31T14:26:33.972Z,31.93
2018-07-31T14:29:03.900Z,31.93
2018-07-31T14:31:33.522Z,31.98
2018-07-31T14:34:06.092Z,31.83
2018-07-31T14:36:38.948Z,31.05
2018-07-31T14:39:10.497Z,31.06
2018-07-31T14:41:42.607Z,31.03
2018-07-31T14:44:15.149Z,30.99
2018-07-31T14:46:47.080Z,31.17
2018-07-31T14:49:19.919Z,31.15
2018-07-31T14:51:49.530Z,31.29
2018-07-31T14:54:20.610Z,31.18
2018-07-31T14:56:49.967Z,31.13
2018-07-31T14:59:19.274Z,31.04
2018-07-31T15:01:50.293Z,31.46
2018-07-31T15:04:18.457Z,31.28
2018-07-31T15:06:47.789Z,31.49
2018-07-31T15:09:17.181Z,31.47
2018-07-31T15:11:49.206Z,31.41
2018-07-31T15:14:18.279Z,30.55
2018-07-31T15:16:47.476Z,30.45
2018-07-31T15:19:16.257Z,30.64
2018-07-31T15:21:45.112Z,30.71
2018-07-31T15:24:13.956Z,30.74
2018-07-31T15:26:42.854Z,30.87
2018-07-31T15:29:11.681Z,30.78
2018-07-31T15:31:40.527Z,30.79
2018-07-31T15:34:09.516Z,30.60
2018-07-31T15:36:38.375Z,30.50
2018-07-31T15:39:09.520Z,30.35
2018-07-31T15:41:38.381Z,30.36
2018-07-31T15:44:07.227Z,30.40
2018-07-31T15:46:36.198Z,30.49
2018-07-31T15:49:05.109Z,30.36
2018-07-31T15:51:34.071Z,30.15
2018-07-31T15:54:02.959Z,30.24
2018-07-31T15:56:31.724Z,30.39
2018-07-31T15:59:00.570Z,30.46
2018-07-31T16:01:29.550Z,30.44
2018-07-31T16:03:58.646Z,30.27
2018-07-31T16:06:36.556Z,30.08
2018-07-31T16:09:08.015Z,30.13
2018-07-31T16:11:36.916Z,30.12
2018-07-31T16:14:05.970Z,29.86
2018-07-31T16:16:34.796Z,29.81
2018-07-31T16:19:03.649Z,29.83
2018-07-31T16:21:32.504Z,29.79
2018-07-31T16:24:01.390Z,29.86
2018-07-31T16:26:30.210Z,29.85
2018-07-31T16:28:59.073Z,29.71
2018-07-31T16:31:27.888Z,29.50
2018-07-31T16:33:56.770Z,29.47
2018-07-31T16:36:25.683Z,29.31
2018-07-31T16:38:54.510Z,29.29
2018-07-31T16:41:23.344Z,29.30
2018-07-31T16:43:52.176Z,29.27
2018-07-31T16:46:21.035Z,29.41
2018-07-31T16:48:51.556Z,29.51
2018-07-31T16:51:20.429Z,29.65
2018-07-31T16:53:49.346Z,29.75
2018-07-31T16:56:18.465Z,29.68
2018-07-31T16:58:47.237Z,29.64
2018-07-31T17:01:16.084Z,29.62
2018-07-31T17:03:44.954Z,29.49
2018-07-31T17:06:13.786Z,29.59
2018-07-31T17:08:42.933Z,29.53
2018-07-31T17:11:15.341Z,29.42
2018-07-31T17:13:44.120Z,29.40
2018-07-31T17:16:13.459Z,29.31
2018-07-31T17:18:42.855Z,29.56
2018-07-31T17:21:11.705Z,29.39
2018-07-31T17:23:40.618Z,29.34
2018-07-31T17:26:10.051Z,29.33
2018-07-31T17:28:38.907Z,29.39
2018-07-31T17:31:07.694Z,29.29
2018-07-31T17:33:36.554Z,29.29
2018-07-31T17:36:05.418Z,29.21
2018-07-31T17:38:34.272Z,29.08
2018-07-31T17:41:03.122Z,29.07
2018-07-31T17:43:31.951Z,28.96
2018-07-31T17:46:00.806Z,28.96
2018-07-31T17:48:29.682Z,28.87
2018-07-31T17:50:58.500Z,28.66
2018-07-31T17:53:27.525Z,28.53
2018-07-31T17:55:56.625Z,28.46
2018-07-31T17:58:25.548Z,28.41
2018-07-31T18:00:54.371Z,28.33
2018-07-31T18:03:23.244Z,28.27
2018-07-31T18:05:52.081Z,28.27
2018-07-31T18:08:21.100Z,28.20
2018-07-31T18:10:49.946Z,28.16
2018-07-31T18:13:18.802Z,28.12
2018-07-31T18:15:51.255Z,28.24
2018-07-31T18:18:20.172Z,28.27
2018-07-31T18:20:49.326Z,28.08
2018-07-31T18:23:18.232Z,28.01
2018-07-31T18:25:47.096Z,27.98
2018-07-31T18:28:15.967Z,27.88
2018-07-31T18:30:44.794Z,27.77
2018-07-31T18:33:13.666Z,27.83
2018-07-31T18:35:42.512Z,27.63
2018-07-31T18:38:13.068Z,27.55
2018-07-31T18:40:41.923Z,27.47
2018-07-31T18:43:10.754Z,27.61
2018-07-31T18:45:39.587Z,27.34
2018-07-31T18:48:08.514Z,27.31
2018-07-31T18:50:37.541Z,27.20
2018-07-31T18:53:06.340Z,27.18
2018-07-31T18:55:35.249Z,27.23
2018-07-31T18:58:04.076Z,27.02
2018-07-31T19:00:34.233Z,26.91
2018-07-31T19:03:03.148Z,26.83
2018-07-31T19:05:31.988Z,26.71
2018-07-31T19:08:00.950Z,26.52
2018-07-31T19:10:30.092Z,26.47
2018-07-31T19:12:58.913Z,26.39
2018-07-31T19:15:27.762Z,26.34
2018-07-31T19:17:56.613Z,26.17
2018-07-31T19:20:25.454Z,26.06
2018-07-31T19:22:54.556Z,25.99
2018-07-31T19:25:23.394Z,25.93
2018-07-31T19:27:52.339Z,25.83
2018-07-31T19:30:21.204Z,25.77
2018-07-31T19:32:50.080Z,25.68
2018-07-31T19:35:18.922Z,25.64
2018-07-31T19:37:47.762Z,25.51
2018-07-31T19:40:16.627Z,25.48
2018-07-31T19:42:45.477Z,25.42
2018-07-31T19:45:14.468Z,25.39
2018-07-31T19:47:43.356Z,25.25
2018-07-31T19:50:12.207Z,25.11
2018-07-31T19:52:41.045Z,25.05
2018-07-31T19:55:10.009Z,25.00
2018-07-31T19:57:38.881Z,24.90
2018-07-31T20:00:07.985Z,24.79
2018-07-31T20:02:36.875Z,24.72
2018-07-31T20:05:05.870Z,24.63
2018-07-31T20:07:37.888Z,24.60
2018-07-31T20:10:07.203Z,24.47
2018-07-31T20:12:36.038Z,24.35
2018-07-31T20:15:04.993Z,24.27
2018-07-31T20:17:33.793Z,24.13
2018-07-31T20:20:02.640Z,24.09
2018-07-31T20:22:31.709Z,24.01
2018-07-31T20:25:00.546Z,23.90
2018-07-31T20:27:29.530Z,23.82
2018-07-31T20:29:58.522Z,23.76
2018-07-31T20:32:27.376Z,23.79
2018-07-31T20:34:56.204Z,23.74
2018-07-31T20:37:25.076Z,23.70
2018-07-31T20:39:53.948Z,23.67
2018-07-31T20:42:22.760Z,23.70
2018-07-31T20:44:51.639Z,23.68
2018-07-31T20:47:20.486Z,23.63
2018-07-31T20:49:49.363Z,23.64
2018-07-31T20:52:18.264Z,23.60
2018-07-31T20:54:47.066Z,23.52
2018-07-31T20:57:15.924Z,23.49
2018-07-31T20:59:44.819Z,23.41
2018-07-31T21:02:13.931Z,23.43
2018-07-31T21:04:42.831Z,23.46
2018-07-31T21:07:11.687Z,23.32
2018-07-31T21:09:40.598Z,23.13
2018-07-31T21:12:09.424Z,23.18
2018-07-31T21:14:41.376Z,23.07
2018-07-31T21:17:10.246Z,23.11
2018-07-31T21:19:39.083Z,22.93
2018-07-31T21:22:07.979Z,22.90
2018-07-31T21:24:36.871Z,22.77
2018-07-31T21:27:05.711Z,22.58
2018-07-31T21:29:34.899Z,22.69
2018-07-31T21:32:03.740Z,22.54
2018-07-31T21:34:32.667Z,22.48
2018-07-31T21:37:05.273Z,22.33
2018-07-31T21:39:34.087Z,22.49
2018-07-31T21:42:02.919Z,22.19
2018-07-31T21:44:31.741Z,22.36
2018-07-31T21:47:00.585Z,22.03
2018-07-31T21:49:29.452Z,22.03
2018-07-31T21:51:58.287Z,22.00
2018-07-31T21:54:27.106Z,21.98
2018-07-31T21:56:55.958Z,22.01
2018-07-31T21:59:24.926Z,22.00
2018-07-31T22:01:53.771Z,21.88
2018-07-31T22:04:22.605Z,21.63
2018-07-31T22:06:51.598Z,21.54
2018-07-31T22:09:41.986Z,21.76
2018-07-31T22:12:10.838Z,21.41
2018-07-31T22:14:39.805Z,21.63
2018-07-31T22:17:08.994Z,21.36
2018-07-31T22:19:43.925Z,21.28
2018-07-31T22:22:12.804Z,21.38
2018-07-31T22:24:41.724Z,21.29
2018-07-31T22:27:10.553Z,21.17
2018-07-31T22:29:39.479Z,21.09
2018-07-31T22:32:08.350Z,21.02
2018-07-31T22:34:37.172Z,20.88
2018-07-31T22:37:06.069Z,21.17
2018-07-31T22:39:34.933Z,20.91
2018-07-31T22:42:03.906Z,20.86
2018-07-31T22:44:32.733Z,20.78
2018-07-31T22:47:01.587Z,20.69
2018-07-31T22:49:30.427Z,20.69
2018-07-31T22:51:59.275Z,20.68
2018-07-31T22:54:28.167Z,20.63
2018-07-31T22:56:57.009Z,20.60
2018-07-31T22:59:25.866Z,20.60
2018-07-31T23:01:54.741Z,20.57
2018-07-31T23:04:23.748Z,20.53
2018-07-31T23:06:52.617Z,20.73
2018-07-31T23:09:21.534Z,20.50
2018-07-31T23:11:50.342Z,20.78
2018-07-31T23:14:19.226Z,20.56
2018-07-31T23:16:48.079Z,20.52
2018-07-31T23:19:16.914Z,20.51
2018-07-31T23:21:45.752Z,20.46
2018-07-31T23:24:14.576Z,20.42
2018-07-31T23:26:46.734Z,20.37
2018-07-31T23:29:15.592Z,20.34
2018-07-31T23:31:44.424Z,20.31
2018-07-31T23:34:13.309Z,20.28
2018-07-31T23:36:42.174Z,20.26
2018-07-31T23:39:11.719Z,20.55
2018-07-31T23:41:40.579Z,20.33
2018-07-31T23:44:09.724Z,20.36
2018-07-31T23:46:39.030Z,20.30
2018-07-31T23:49:07.872Z,20.22
2018-07-31T23:51:36.737Z,20.13
2018-07-31T23:54:05.609Z,20.09
2018-07-31T23:56:34.448Z,20.15
2018-07-31T23:59:03.286Z,20.10
